Time;durP1;ratioP1;P1;durP2;ratioP2;P2;SDS_P1;SDS_P2;PMS_P1;PMS_P2;Temp;Humidity;BMP_temperature;BMP_pressure;BME280_temperature;BME280_humidity;BME280_pressure;Samples;Min_cycle;Max_cycle;Signal;HPM_P1;HPM_P2
2021/08/15 00:00:21;;;;;;;;;;;;;;;;;;5068292;28;19961;-58
2021/08/15 00:02:47;;;;;;;;;;;;;;;;;;5067768;28;19913;-57
2021/08/15 00:05:13;;;;;;;;;;;;;;;;;;5051789;28;19925;-57
2021/08/15 00:07:39;;;;;;;;;;;;;;;;;;5051927;28;19925;-58
2021/08/15 00:10:05;;;;;;;;;;;;;;;;;;5065398;28;19917;-58
2021/08/15 00:12:31;;;;;;;;;;;;;;;;;;5068492;28;20333;-58
2021/08/15 00:14:57;;;;;;;;;;;;;;;;;;5067964;28;19908;-57
2021/08/15 00:17:23;;;;;;;;;;;;;;;;;;5059508;28;19971;-58
2021/08/15 00:19:49;;;;;;;;;;;;;;;;;;5047575;28;19924;-57
2021/08/15 00:22:15;;;;;;;;;;;;;;;;;;5047763;28;20002;-57
2021/08/15 00:24:41;;;;;;;;;;;;;;;;;;5047432;28;19932;-57
2021/08/15 00:27:07;;;;;;;;;;;;;;;;;;5050144;28;19921;-57
2021/08/15 00:29:33;;;;;;;;;;;;;;;;;;5067578;28;20657;-58
2021/08/15 00:31:59;;;;;;;;;;;;;;;;;;5068348;28;20405;-57
2021/08/15 00:34:25;;;;;;;;;;;;;;;;;;5067526;28;19955;-57
2021/08/15 00:36:51;;;;;;;;;;;;;;;;;;5059153;28;20000;-57
2021/08/15 00:39:17;;;;;;;;;;;;;;;;;;5047504;28;19909;-57
2021/08/15 00:41:43;;;;;;;;;;;;;;;;;;5047281;28;19966;-57
2021/08/15 00:44:11;;;;;;;;;;;;;;;;;;5046827;28;19955;-57
2021/08/15 00:46:37;;;;;;;;;;;;;;;;;;5047294;28;19916;-57
2021/08/15 00:49:03;;;;;;;;;;;;;;;;;;5047088;28;19912;-57
2021/08/15 00:51:29;;;;;;;;;;;;;;;;;;5047831;28;20027;-57
2021/08/15 00:53:57;;;;;;;;;;;;;;;;;;5046679;28;19909;-57
2021/08/15 00:56:23;;;;;;;;;;;;;;;;;;5047610;28;20869;-57
2021/08/15 00:58:50;;;;;;;;;;;;;;;;;;5063057;28;19916;-58
2021/08/15 01:01:18;;;;;;;;;;;;;;;;;;5067072;28;20391;-57
2021/08/15 01:03:44;;;;;;;;;;;;;;;;;;5066560;28;19921;-58
2021/08/15 01:06:10;;;;;;;;;;;;;;;;;;5067255;28;19916;-58
2021/08/15 01:08:36;;;;;;;;;;;;;;;;;;5050580;28;19913;-58
2021/08/15 01:11:02;;;;;;;;;;;;;;;;;;5047804;28;19913;-57
2021/08/15 01:13:28;;;;;;;;;;;;;;;;;;5047196;28;20339;-57
2021/08/15 01:15:54;;;;;;;;;;;;;;;;;;5046821;28;19957;-57
2021/08/15 01:18:20;;;;;;;;;;;;;;;;;;5059085;28;19989;-58
2021/08/15 01:20:46;;;;;;;;;;;;;;;;;;5065269;28;19916;-58
2021/08/15 01:23:12;;;;;;;;;;;;;;;;;;5066689;28;19947;-57
2021/08/15 01:25:38;;;;;;;;;;;;;;;;;;5066720;28;19915;-57
2021/08/15 01:28:04;;;;;;;;;;;;;;;;;;5065841;28;19931;-58
2021/08/15 01:30:30;;;;;;;;;;;;;;;;;;5067457;28;19951;-57
2021/08/15 01:32:56;;;;;;;;;;;;;;;;;;5066309;28;19905;-58
2021/08/15 01:35:22;;;;;;;;;;;;;;;;;;5064158;28;19909;-57
2021/08/15 01:37:48;;;;;;;;;;;;;;;;;;5046083;28;19954;-57
2021/08/15 01:40:14;;;;;;;;;;;;;;;;;;5047729;28;19960;-57
2021/08/15 01:42:40;;;;;;;;;;;;;;;;;;5066401;28;19942;-57
2021/08/15 01:45:06;;;;;;;;;;;;;;;;;;5066307;28;19912;-57
2021/08/15 01:47:31;;;;;;;;;;;;;;;;;;5066291;28;19922;-57
2021/08/15 01:49:57;;;;;;;;;;;;;;;;;;5066803;28;19974;-57
2021/08/15 01:52:23;;;;;;;;;;;;;;;;;;5046360;28;19921;-58
2021/08/15 01:54:49;;;;;;;;;;;;;;;;;;5046472;28;19920;-57
2021/08/15 01:57:15;;;;;;;;;;;;;;;;;;5046534;28;20000;-58
2021/08/15 01:59:41;;;;;;;;;;;;;;;;;;5066348;28;19909;-58
2021/08/15 02:02:07;;;;;;;;;;;;;;;;;;5048768;28;19917;-57
2021/08/15 02:04:33;;;;;;;;;;;;;;;;;;5047255;28;19912;-57
2021/08/15 02:06:59;;;;;;;;;;;;;;;;;;5059170;28;19916;-57
2021/08/15 02:09:25;;;;;;;;;;;;;;;;;;5070270;28;19924;-57
2021/08/15 02:11:51;;;;;;;;;;;;;;;;;;5068929;28;20394;-57
2021/08/15 02:14:17;;;;;;;;;;;;;;;;;;5070188;28;19909;-57
2021/08/15 02:16:43;;;;;;;;;;;;;;;;;;5069970;28;19912;-57
2021/08/15 02:19:09;;;;;;;;;;;;;;;;;;5070035;28;19927;-57
2021/08/15 02:21:35;;;;;;;;;;;;;;;;;;5068428;28;19947;-57
2021/08/15 02:24:01;;;;;;;;;;;;;;;;;;5070551;28;20021;-57
2021/08/15 02:26:27;;;;;;;;;;;;;;;;;;5070169;28;19908;-57
2021/08/15 02:28:53;;;;;;;;;;;;;;;;;;5069810;28;20122;-57
2021/08/15 02:31:19;;;;;;;;;;;;;;;;;;5059999;28;19913;-57
2021/08/15 02:33:45;;;;;;;;;;;;;;;;;;5049417;28;19923;-57
2021/08/15 02:36:11;;;;;;;;;;;;;;;;;;5049756;28;19909;-57
2021/08/15 02:38:37;;;;;;;;;;;;;;;;;;5049191;28;19935;-57
2021/08/15 02:41:03;;;;;;;;;;;;;;;;;;5049728;28;19909;-57
2021/08/15 02:43:29;;;;;;;;;;;;;;;;;;5050127;28;20384;-57
2021/08/15 02:45:55;;;;;;;;;;;;;;;;;;5049357;28;19963;-57
2021/08/15 02:48:21;;;;;;;;;;;;;;;;;;5051895;28;19913;-57
2021/08/15 02:50:47;;;;;;;;;;;;;;;;;;5069653;28;19909;-57
2021/08/15 02:53:13;;;;;;;;;;;;;;;;;;5062396;28;19915;-57
2021/08/15 02:55:39;;;;;;;;;;;;;;;;;;5049230;28;20023;-57
2021/08/15 02:58:05;;;;;;;;;;;;;;;;;;5049542;28;19913;-57
2021/08/15 03:00:31;;;;;;;;;;;;;;;;;;5049989;28;19932;-57
2021/08/15 03:02:57;;;;;;;;;;;;;;;;;;5067589;28;20596;-57
2021/08/15 03:05:23;;;;;;;;;;;;;;;;;;5069440;28;19908;-57
2021/08/15 03:07:49;;;;;;;;;;;;;;;;;;5068969;28;19931;-57
2021/08/15 03:10:15;;;;;;;;;;;;;;;;;;5067760;28;20291;-57
2021/08/15 03:12:40;;;;;;;;;;;;;;;;;;5069052;28;19908;-57
2021/08/15 03:15:06;;;;;;;;;;;;;;;;;;5051144;28;19913;-57
2021/08/15 03:17:33;;;;;;;;;;;;;;;;;;5059979;28;19912;-57
2021/08/15 03:19:59;;;;;;;;;;;;;;;;;;5068524;28;19916;-57
2021/08/15 03:22:25;;;;;;;;;;;;;;;;;;5068870;28;19923;-57
2021/08/15 03:24:51;;;;;;;;;;;;;;;;;;5067397;28;19909;-57
2021/08/15 03:27:17;;;;;;;;;;;;;;;;;;5067494;28;19909;-57
2021/08/15 03:29:43;;;;;;;;;;;;;;;;;;5067099;28;19999;-57
2021/08/15 03:32:09;;;;;;;;;;;;;;;;;;5067042;28;19952;-57
2021/08/15 03:34:35;;;;;;;;;;;;;;;;;;5066682;28;19908;-57
2021/08/15 03:37:01;;;;;;;;;;;;;;;;;;5067682;28;19908;-57
2021/08/15 03:39:29;;;;;;;;;;;;;;;;;;5067196;28;19947;-57
2021/08/15 03:41:58;;;;;;;;;;;;;;;;;;5067028;28;20220;-57
2021/08/15 03:44:24;;;;;;;;;;;;;;;;;;5066689;28;19943;-57
2021/08/15 03:46:50;;;;;;;;;;;;;;;;;;5066514;28;20375;-57
2021/08/15 03:49:17;;;;;;;;;;;;;;;;;;5067034;28;19923;-57
2021/08/15 03:51:43;;;;;;;;;;;;;;;;;;5066679;28;19909;-57
2021/08/15 03:54:09;;;;;;;;;;;;;;;;;;5065344;28;19973;-57
2021/08/15 03:56:35;;;;;;;;;;;;;;;;;;5066698;28;19908;-58
2021/08/15 03:59:01;;;;;;;;;;;;;;;;;;5067451;28;19909;-57
2021/08/15 04:01:27;;;;;;;;;;;;;;;;;;5066433;28;20177;-57
2021/08/15 04:03:53;;;;;;;;;;;;;;;;;;5066768;28;20322;-57
2021/08/15 04:06:22;;;;;;;;;;;;;;;;;;5066420;28;20719;-57
2021/08/15 04:08:48;;;;;;;;;;;;;;;;;;5066336;28;20387;-58
2021/08/15 04:11:14;;;;;;;;;;;;;;;;;;5065168;28;20015;-57
2021/08/15 04:13:41;;;;;;;;;;;;;;;;;;5066251;28;19912;-57
2021/08/15 04:16:08;;;;;;;;;;;;;;;;;;5066317;28;19915;-58
2021/08/15 04:18:34;;;;;;;;;;;;;;;;;;5066195;28;19908;-57
2021/08/15 04:21:00;;;;;;;;;;;;;;;;;;5066474;28;19912;-57
2021/08/15 04:23:26;;;;;;;;;;;;;;;;;;5066298;28;20398;-57
2021/08/15 04:25:53;;;;;;;;;;;;;;;;;;5066315;28;19930;-57
2021/08/15 04:28:21;;;;;;;;;;;;;;;;;;5065656;28;19917;-57
2021/08/15 04:30:47;;;;;;;;;;;;;;;;;;5065971;28;20456;-57
2021/08/15 04:33:16;;;;;;;;;;;;;;;;;;5065737;28;19913;-57
2021/08/15 04:35:43;;;;;;;;;;;;;;;;;;5065831;28;19909;-57
2021/08/15 04:38:09;;;;;;;;;;;;;;;;;;5066074;28;19908;-57
2021/08/15 04:40:35;;;;;;;;;;;;;;;;;;5065987;28;19912;-57
2021/08/15 04:43:01;;;;;;;;;;;;;;;;;;5066714;28;20331;-57
2021/08/15 04:45:27;;;;;;;;;;;;;;;;;;5064105;28;19916;-57
2021/08/15 04:47:53;;;;;;;;;;;;;;;;;;5065751;28;19912;-57
2021/08/15 04:50:19;;;;;;;;;;;;;;;;;;5065732;28;19923;-57
2021/08/15 04:52:45;;;;;;;;;;;;;;;;;;5065764;28;20333;-57
2021/08/15 04:55:12;;;;;;;;;;;;;;;;;;5065806;28;19915;-57
2021/08/15 04:57:39;;;;;;;;;;;;;;;;;;5065549;28;19996;-57
2021/08/15 05:00:05;;;;;;;;;;;;;;;;;;5065573;28;19923;-57
2021/08/15 05:02:30;;;;;;;;;;;;;;;;;;5065822;28;19913;-57
2021/08/15 05:04:56;;;;;;;;;;;;;;;;;;5065433;28;19991;-57
2021/08/15 05:07:22;;;;;;;;;;;;;;;;;;5065884;28;19965;-57
2021/08/15 05:09:48;;;;;;;;;;;;;;;;;;5065297;28;19913;-57
2021/08/15 05:12:14;;;;;;;;;;;;;;;;;;5065759;28;19913;-57
2021/08/15 05:14:40;;;;;;;;;;;;;;;;;;5065376;28;19920;-57
2021/08/15 05:17:06;;;;;;;;;;;;;;;;;;5065347;28;19904;-57
2021/08/15 05:19:32;;;;;;;;;;;;;;;;;;5065923;28;19913;-57
2021/08/15 05:21:58;;;;;;;;;;;;;;;;;;5065581;28;19917;-57
2021/08/15 05:24:24;;;;;;;;;;;;;;;;;;5065541;28;20417;-57
2021/08/15 05:26:50;;;;;;;;;;;;;;;;;;5065106;28;19916;-57
2021/08/15 05:29:15;;;;;;;;;;;;;;;;;;5065458;28;19915;-57
2021/08/15 05:31:41;;;;;;;;;;;;;;;;;;5065331;28;20007;-57
2021/08/15 05:34:07;;;;;;;;;;;;;;;;;;5065205;28;20381;-57
2021/08/15 05:36:34;;;;;;;;;;;;;;;;;;5065227;28;19908;-58
2021/08/15 05:39:00;;;;;;;;;;;;;;;;;;5068152;28;20432;-57
2021/08/15 05:41:26;;;;;;;;;;;;;;;;;;5059747;28;19939;-57
2021/08/15 05:43:52;;;;;;;;;;;;;;;;;;5065519;28;19913;-57
2021/08/15 05:46:18;;;;;;;;;;;;;;;;;;5060506;28;19958;-57
2021/08/15 05:48:44;;;;;;;;;;;;;;;;;;5066939;28;20008;-57
2021/08/15 05:51:11;;;;;;;;;;;;;;;;;;5051719;28;19909;-57
2021/08/15 05:53:37;;;;;;;;;;;;;;;;;;5050840;28;19944;-57
2021/08/15 05:56:03;;;;;;;;;;;;;;;;;;5063073;28;19915;-57
2021/08/15 05:58:29;;;;;;;;;;;;;;;;;;5071114;28;19908;-57
2021/08/15 06:00:55;;;;;;;;;;;;;;;;;;5086728;28;19923;-57
2021/08/15 06:03:21;;;;;;;;;;;;;;;;;;5090790;28;19973;-58
2021/08/15 06:05:48;;;;;;;;;;;;;;;;;;5056950;28;19920;-57
2021/08/15 06:08:16;;;;;;;;;;;;;;;;;;5050176;28;19913;-57
2021/08/15 06:10:41;;;;;;;;;;;;;;;;;;5049925;28;19916;-57
2021/08/15 06:13:09;;;;;;;;;;;;;;;;;;5050288;28;20482;-57
2021/08/15 06:15:35;;;;;;;;;;;;;;;;;;5050054;28;20383;-57
2021/08/15 06:18:01;;;;;;;;;;;;;;;;;;5051069;28;19932;-57
2021/08/15 06:20:28;;;;;;;;;;;;;;;;;;5069483;28;19919;-57
2021/08/15 06:22:54;;;;;;;;;;;;;;;;;;5059722;28;19961;-58
2021/08/15 06:25:20;;;;;;;;;;;;;;;;;;5051006;28;19920;-57
2021/08/15 06:27:46;;;;;;;;;;;;;;;;;;5049555;28;20008;-57
2021/08/15 06:30:12;;;;;;;;;;;;;;;;;;5049759;28;19916;-58
2021/08/15 06:32:38;;;;;;;;;;;;;;;;;;5049622;28;20686;-58
2021/08/15 06:35:04;;;;;;;;;;;;;;;;;;5049817;28;20170;-58
2021/08/15 06:37:29;;;;;;;;;;;;;;;;;;5049909;28;20011;-58
2021/08/15 06:39:55;;;;;;;;;;;;;;;;;;5048692;28;19913;-58
2021/08/15 06:42:21;;;;;;;;;;;;;;;;;;5049378;28;19943;-58
2021/08/15 06:44:47;;;;;;;;;;;;;;;;;;5048813;28;19913;-58
2021/08/15 06:47:13;;;;;;;;;;;;;;;;;;5054572;28;19916;-58
2021/08/15 06:49:39;;;;;;;;;;;;;;;;;;5068365;28;19908;-58
2021/08/15 06:52:05;;;;;;;;;;;;;;;;;;5069442;28;19920;-58
2021/08/15 06:54:31;;;;;;;;;;;;;;;;;;5069666;28;19915;-58
2021/08/15 06:56:57;;;;;;;;;;;;;;;;;;5062424;28;19913;-58
2021/08/15 06:59:23;;;;;;;;;;;;;;;;;;5049433;28;20011;-58
2021/08/15 07:01:49;;;;;;;;;;;;;;;;;;5048941;28;19909;-58
2021/08/15 07:04:15;;;;;;;;;;;;;;;;;;5050312;28;19966;-58
2021/08/15 07:06:41;;;;;;;;;;;;;;;;;;5048950;28;20003;-58
2021/08/15 07:09:07;;;;;;;;;;;;;;;;;;5048866;28;20003;-58
2021/08/15 07:11:33;;;;;;;;;;;;;;;;;;5049217;28;20007;-58
2021/08/15 07:13:59;;;;;;;;;;;;;;;;;;5049762;28;19912;-58
2021/08/15 07:16:25;;;;;;;;;;;;;;;;;;5047851;28;19917;-58
2021/08/15 07:18:51;;;;;;;;;;;;;;;;;;5048697;28;19912;-58
2021/08/15 07:21:16;;;;;;;;;;;;;;;;;;5047764;28;19931;-58
2021/08/15 07:23:42;;;;;;;;;;;;;;;;;;5048240;28;19920;-58
2021/08/15 07:26:08;;;;;;;;;;;;;;;;;;5048658;28;20039;-57
2021/08/15 07:28:34;;;;;;;;;;;;;;;;;;5048243;28;19912;-58
2021/08/15 07:31:00;;;;;;;;;;;;;;;;;;5051673;28;19928;-58
2021/08/15 07:33:26;;;;;;;;;;;;;;;;;;5068387;28;19909;-58
2021/08/15 07:35:52;;;;;;;;;;;;;;;;;;5068075;28;19915;-58
2021/08/15 07:38:18;;;;;;;;;;;;;;;;;;5068382;28;19912;-58
2021/08/15 07:40:44;;;;;;;;;;;;;;;;;;5068272;28;19916;-57
2021/08/15 07:43:10;;;;;;;;;;;;;;;;;;5068215;28;19948;-57
2021/08/15 07:45:36;;;;;;;;;;;;;;;;;;5067262;28;19948;-58
2021/08/15 07:48:02;;;;;;;;;;;;;;;;;;5068927;28;20360;-57
2021/08/15 07:50:33;;;;;;;;;;;;;;;;;;5068614;28;20002;-58
2021/08/15 07:52:59;;;;;;;;;;;;;;;;;;5068427;28;20422;-58
2021/08/15 07:55:25;;;;;;;;;;;;;;;;;;5068127;28;19919;-58
2021/08/15 07:57:52;;;;;;;;;;;;;;;;;;5067403;28;19999;-58
2021/08/15 08:00:18;;;;;;;;;;;;;;;;;;5067990;28;19913;-58
2021/08/15 08:02:44;;;;;;;;;;;;;;;;;;5066623;28;19970;-58
2021/08/15 08:05:10;;;;;;;;;;;;;;;;;;5065788;28;19986;-58
2021/08/15 08:07:37;;;;;;;;;;;;;;;;;;5066920;28;19909;-58
2021/08/15 08:10:03;;;;;;;;;;;;;;;;;;5065890;28;20505;-59
2021/08/15 08:12:29;;;;;;;;;;;;;;;;;;5066018;28;19971;-58
2021/08/15 08:14:55;;;;;;;;;;;;;;;;;;5058401;28;19958;-58
2021/08/15 08:17:22;;;;;;;;;;;;;;;;;;5066885;28;19916;-58
2021/08/15 08:19:48;;;;;;;;;;;;;;;;;;5061490;28;19912;-58
2021/08/15 08:22:15;;;;;;;;;;;;;;;;;;5067091;28;20011;-58
2021/08/15 08:24:41;;;;;;;;;;;;;;;;;;5051831;28;19916;-58
2021/08/15 08:27:07;;;;;;;;;;;;;;;;;;5046814;28;19999;-58
2021/08/15 08:29:33;;;;;;;;;;;;;;;;;;5047559;28;19913;-58
2021/08/15 08:31:58;;;;;;;;;;;;;;;;;;5058241;28;19916;-58
2021/08/15 08:34:24;;;;;;;;;;;;;;;;;;5066918;28;19913;-58
2021/08/15 08:36:50;;;;;;;;;;;;;;;;;;5060353;28;20324;-58
2021/08/15 08:39:16;;;;;;;;;;;;;;;;;;5046926;28;19909;-57
2021/08/15 08:41:42;;;;;;;;;;;;;;;;;;5046454;28;19909;-58
2021/08/15 08:44:08;;;;;;;;;;;;;;;;;;5046359;28;20233;-58
2021/08/15 08:46:34;;;;;;;;;;;;;;;;;;5046644;28;19917;-58
2021/08/15 08:49:01;;;;;;;;;;;;;;;;;;5053302;28;19913;-57
2021/08/15 08:51:27;;;;;;;;;;;;;;;;;;5066828;28;19997;-57
2021/08/15 08:53:53;;;;;;;;;;;;;;;;;;5066467;28;20587;-58
2021/08/15 08:56:23;;;;;;;;;;;;;;;;;;5065124;28;19908;-58
2021/08/15 08:58:49;;;;;;;;;;;;;;;;;;5065828;28;19919;-58
2021/08/15 09:01:16;;;;;;;;;;;;;;;;;;5066572;28;19919;-57
2021/08/15 09:03:42;;;;;;;;;;;;;;;;;;5065960;28;19912;-58
2021/08/15 09:06:09;;;;;;;;;;;;;;;;;;5066616;28;19919;-58
2021/08/15 09:08:35;;;;;;;;;;;;;;;;;;5055103;28;19960;-58
2021/08/15 09:11:01;;;;;;;;;;;;;;;;;;5046525;28;19967;-57
2021/08/15 09:13:28;;;;;;;;;;;;;;;;;;5046269;28;20338;-58
2021/08/15 09:15:54;;;;;;;;;;;;;;;;;;5044050;28;19917;-58
2021/08/15 09:18:20;;;;;;;;;;;;;;;;;;5057540;28;20623;-58
2021/08/15 09:20:47;;;;;;;;;;;;;;;;;;5065987;28;19940;-58
2021/08/15 09:23:15;;;;;;;;;;;;;;;;;;5045438;28;20210;-58
2021/08/15 09:25:41;;;;;;;;;;;;;;;;;;5055884;28;19947;-58
2021/08/15 09:28:07;;;;;;;;;;;;;;;;;;5067163;28;20388;-57
2021/08/15 09:30:33;;;;;;;;;;;;;;;;;;5066045;28;20422;-58
2021/08/15 09:32:59;;;;;;;;;;;;;;;;;;5065743;28;19912;-58
2021/08/15 09:35:25;;;;;;;;;;;;;;;;;;5066038;28;19943;-58
2021/08/15 09:37:51;;;;;;;;;;;;;;;;;;5065634;28;19908;-58
2021/08/15 09:40:17;;;;;;;;;;;;;;;;;;5066513;28;19908;-58
2021/08/15 09:42:43;;;;;;;;;;;;;;;;;;5065612;28;19920;-58
2021/08/15 09:45:10;;;;;;;;;;;;;;;;;;5065554;28;19990;-58
2021/08/15 09:47:36;;;;;;;;;;;;;;;;;;5065648;28;20003;-58
2021/08/15 09:50:02;;;;;;;;;;;;;;;;;;5065823;28;19908;-58
2021/08/15 09:52:28;;;;;;;;;;;;;;;;;;5065453;28;20010;-57
2021/08/15 09:54:54;;;;;;;;;;;;;;;;;;5065585;28;20287;-58
2021/08/15 09:57:20;;;;;;;;;;;;;;;;;;5066353;28;20003;-57
2021/08/15 09:59:46;;;;;;;;;;;;;;;;;;5065743;28;19947;-58
2021/08/15 10:02:12;;;;;;;;;;;;;;;;;;5065483;28;20124;-58
2021/08/15 10:04:38;;;;;;;;;;;;;;;;;;5065290;28;19908;-58
2021/08/15 10:07:04;;;;;;;;;;;;;;;;;;5065624;28;19912;-58
2021/08/15 10:09:31;;;;;;;;;;;;;;;;;;5064885;28;20096;-58
2021/08/15 10:11:57;;;;;;;;;;;;;;;;;;5065591;28;19908;-58
2021/08/15 10:14:24;;;;;;;;;;;;;;;;;;5065122;28;20380;-58
2021/08/15 10:16:51;;;;;;;;;;;;;;;;;;5065805;28;19943;-58
2021/08/15 10:19:18;;;;;;;;;;;;;;;;;;5051775;28;20278;-58
2021/08/15 10:21:43;;;;;;;;;;;;;;;;;;5045136;28;19927;-58
2021/08/15 10:24:09;;;;;;;;;;;;;;;;;;5045729;28;19909;-58
2021/08/15 10:26:36;;;;;;;;;;;;;;;;;;5052039;28;19916;-57
2021/08/15 10:29:02;;;;;;;;;;;;;;;;;;5048737;28;20358;-58
2021/08/15 10:31:28;;;;;;;;;;;;;;;;;;5047436;28;19923;-58
2021/08/15 10:33:55;;;;;;;;;;;;;;;;;;5048700;28;19971;-58
2021/08/15 10:36:21;;;;;;;;;;;;;;;;;;5048832;28;19917;-58
2021/08/15 10:38:47;;;;;;;;;;;;;;;;;;5048958;28;20368;-58
2021/08/15 10:41:13;;;;;;;;;;;;;;;;;;5048453;28;19952;-58
2021/08/15 10:43:39;;;;;;;;;;;;;;;;;;5047145;28;20035;-58
2021/08/15 10:46:04;;;;;;;;;;;;;;;;;;5048707;28;19917;-58
2021/08/15 10:48:30;;;;;;;;;;;;;;;;;;5052732;28;20012;-58
2021/08/15 10:50:56;;;;;;;;;;;;;;;;;;5059087;28;20379;-59
2021/08/15 10:53:22;;;;;;;;;;;;;;;;;;5051120;28;19915;-59
2021/08/15 10:55:49;;;;;;;;;;;;;;;;;;5055310;28;20386;-58
2021/08/15 10:58:15;;;;;;;;;;;;;;;;;;5078653;28;19917;-57
2021/08/15 11:00:42;;;;;;;;;;;;;;;;;;5061968;28;19923;-58
2021/08/15 11:03:08;;;;;;;;;;;;;;;;;;5067369;28;19924;-58
2021/08/15 11:05:35;;;;;;;;;;;;;;;;;;5069096;28;19924;-57
2021/08/15 11:08:01;;;;;;;;;;;;;;;;;;5064989;28;19916;-57
2021/08/15 11:10:26;;;;;;;;;;;;;;;;;;5051455;28;19913;-57
2021/08/15 11:12:52;;;;;;;;;;;;;;;;;;5069004;28;19912;-57
2021/08/15 11:15:20;;;;;;;;;;;;;;;;;;5058223;28;19913;-57
2021/08/15 11:17:46;;;;;;;;;;;;;;;;;;5070555;28;20422;-57
2021/08/15 11:20:12;;;;;;;;;;;;;;;;;;5053988;28;20004;-57
2021/08/15 11:22:39;;;;;;;;;;;;;;;;;;5050039;28;19917;-57
2021/08/15 11:25:05;;;;;;;;;;;;;;;;;;5068796;28;19999;-56
2021/08/15 11:27:31;;;;;;;;;;;;;;;;;;5059698;28;20656;-57
2021/08/15 11:29:57;;;;;;;;;;;;;;;;;;5048290;28;19920;-57
2021/08/15 11:32:23;;;;;;;;;;;;;;;;;;5049020;28;19909;-57
2021/08/15 11:34:49;;;;;;;;;;;;;;;;;;5048466;28;19913;-57
2021/08/15 11:37:15;;;;;;;;;;;;;;;;;;5048704;28;20295;-57
2021/08/15 11:39:42;;;;;;;;;;;;;;;;;;5048056;28;19913;-57
2021/08/15 11:42:08;;;;;;;;;;;;;;;;;;5048837;28;19920;-57
2021/08/15 11:44:34;;;;;;;;;;;;;;;;;;5048296;28;19916;-57
2021/08/15 11:47:00;;;;;;;;;;;;;;;;;;5052221;28;19913;-57
2021/08/15 11:49:27;;;;;;;;;;;;;;;;;;5068632;28;19973;-58
2021/08/15 11:51:54;;;;;;;;;;;;;;;;;;5061953;28;19928;-59
2021/08/15 11:54:20;;;;;;;;;;;;;;;;;;5052266;28;19908;-58
2021/08/15 11:56:47;;;;;;;;;;;;;;;;;;5050003;28;19913;-58
2021/08/15 11:59:13;;;;;;;;;;;;;;;;;;5067822;28;19908;-59
2021/08/15 12:01:39;;;;;;;;;;;;;;;;;;5066467;28;19923;-58
2021/08/15 12:04:06;;;;;;;;;;;;;;;;;;5050539;28;19992;-59
2021/08/15 12:06:32;;;;;;;;;;;;;;;;;;5047055;28;20456;-58
2021/08/15 12:08:58;;;;;;;;;;;;;;;;;;5053378;28;20003;-59
2021/08/15 12:11:24;;;;;;;;;;;;;;;;;;5051999;28;20401;-59
2021/08/15 12:13:52;;;;;;;;;;;;;;;;;;5047135;28;19912;-59
2021/08/15 12:16:18;;;;;;;;;;;;;;;;;;5058906;28;19921;-59
2021/08/15 12:18:44;;;;;;;;;;;;;;;;;;5059101;28;20085;-59
2021/08/15 12:21:10;;;;;;;;;;;;;;;;;;5050779;28;19916;-58
2021/08/15 12:23:35;;;;;;;;;;;;;;;;;;5055847;28;19916;-59
2021/08/15 12:26:01;;;;;;;;;;;;;;;;;;5053907;28;19959;-59
2021/08/15 12:28:27;;;;;;;;;;;;;;;;;;5054090;28;19956;-58
2021/08/15 12:30:54;;;;;;;;;;;;;;;;;;5049628;28;20916;-58
2021/08/15 12:33:20;;;;;;;;;;;;;;;;;;5057949;28;19920;-58
2021/08/15 12:35:46;;;;;;;;;;;;;;;;;;5067173;28;20399;-58
2021/08/15 12:38:12;;;;;;;;;;;;;;;;;;5067750;28;19913;-59
2021/08/15 12:40:38;;;;;;;;;;;;;;;;;;5065211;28;20326;-59
2021/08/15 12:43:09;;;;;;;;;;;;;;;;;;5052312;28;19920;-60
2021/08/15 12:45:37;;;;;;;;;;;;;;;;;;5048170;28;19967;-58
2021/08/15 12:48:04;;;;;;;;;;;;;;;;;;5065212;28;20396;-59
2021/08/15 12:50:30;;;;;;;;;;;;;;;;;;5050055;28;19924;-59
2021/08/15 12:52:56;;;;;;;;;;;;;;;;;;5050413;28;20372;-58
2021/08/15 12:55:22;;;;;;;;;;;;;;;;;;5060178;28;20440;-58
2021/08/15 12:57:48;;;;;;;;;;;;;;;;;;5053377;28;20074;-59
2021/08/15 13:00:17;;;;;;;;;;;;;;;;;;5047556;28;20368;-59
2021/08/15 13:02:43;;;;;;;;;;;;;;;;;;5049893;28;19966;-58
2021/08/15 13:05:09;;;;;;;;;;;;;;;;;;5055256;28;19920;-58
2021/08/15 13:07:36;;;;;;;;;;;;;;;;;;5061702;28;19917;-59
2021/08/15 13:10:02;;;;;;;;;;;;;;;;;;5055755;28;19937;-59
2021/08/15 13:12:28;;;;;;;;;;;;;;;;;;5059427;28;20283;-59
2021/08/15 13:14:54;;;;;;;;;;;;;;;;;;5053637;28;20011;-59
2021/08/15 13:17:21;;;;;;;;;;;;;;;;;;5049320;28;19920;-59
2021/08/15 13:19:47;;;;;;;;;;;;;;;;;;5054806;28;20391;-60
2021/08/15 13:22:13;;;;;;;;;;;;;;;;;;5058149;28;20007;-59
2021/08/15 13:24:39;;;;;;;;;;;;;;;;;;5058779;28;20054;-59
2021/08/15 13:27:05;;;;;;;;;;;;;;;;;;5059635;28;19916;-58
2021/08/15 13:29:32;;;;;;;;;;;;;;;;;;5049118;28;20456;-58
2021/08/15 13:31:59;;;;;;;;;;;;;;;;;;5051431;28;19917;-58
2021/08/15 13:34:24;;;;;;;;;;;;;;;;;;5054103;28;19921;-58
2021/08/15 13:36:51;;;;;;;;;;;;;;;;;;5056816;28;19913;-58
2021/08/15 13:39:17;;;;;;;;;;;;;;;;;;5051670;28;19951;-58
2021/08/15 13:41:44;;;;;;;;;;;;;;;;;;5049679;28;20001;-57
2021/08/15 13:44:12;;;;;;;;;;;;;;;;;;5056332;28;19987;-58
2021/08/15 13:46:38;;;;;;;;;;;;;;;;;;5054101;28;19948;-58
2021/08/15 13:49:05;;;;;;;;;;;;;;;;;;5046721;28;20469;-58
2021/08/15 13:51:32;;;;;;;;;;;;;;;;;;5052089;28;19942;-58
2021/08/15 13:54:00;;;;;;;;;;;;;;;;;;5055338;28;19968;-59
2021/08/15 13:56:26;;;;;;;;;;;;;;;;;;5052986;28;20403;-58
2021/08/15 13:58:52;;;;;;;;;;;;;;;;;;5053467;28;20003;-59
2021/08/15 14:01:18;;;;;;;;;;;;;;;;;;5062856;28;19930;-58
2021/08/15 14:03:44;;;;;;;;;;;;;;;;;;5058880;28;19963;-59
2021/08/15 14:06:10;;;;;;;;;;;;;;;;;;5060670;28;20399;-58
2021/08/15 14:08:36;;;;;;;;;;;;;;;;;;5059934;28;20241;-59
2021/08/15 14:11:02;;;;;;;;;;;;;;;;;;5061929;28;19917;-58
2021/08/15 14:13:28;;;;;;;;;;;;;;;;;;5064646;28;19908;-59
2021/08/15 14:15:54;;;;;;;;;;;;;;;;;;5055829;28;20542;-58
2021/08/15 14:18:20;;;;;;;;;;;;;;;;;;5055321;28;19917;-58
2021/08/15 14:20:46;;;;;;;;;;;;;;;;;;5058658;28;20395;-59
2021/08/15 14:23:12;;;;;;;;;;;;;;;;;;5050913;28;20294;-59
2021/08/15 14:25:39;;;;;;;;;;;;;;;;;;5054912;28;19912;-59
2021/08/15 14:28:05;;;;;;;;;;;;;;;;;;5055135;28;19916;-58
2021/08/15 14:30:34;;;;;;;;;;;;;;;;;;5059298;28;19941;-58
2021/08/15 14:33:01;;;;;;;;;;;;;;;;;;5055267;28;19963;-58
2021/08/15 14:35:27;;;;;;;;;;;;;;;;;;5058247;28;20363;-58
2021/08/15 14:37:53;;;;;;;;;;;;;;;;;;5054265;28;19938;-59
2021/08/15 14:40:19;;;;;;;;;;;;;;;;;;5059464;28;19912;-59
2021/08/15 14:42:46;;;;;;;;;;;;;;;;;;5056570;28;19955;-59
2021/08/15 14:45:12;;;;;;;;;;;;;;;;;;5053304;28;19917;-59
2021/08/15 14:47:38;;;;;;;;;;;;;;;;;;5054630;28;20042;-58
2021/08/15 14:50:05;;;;;;;;;;;;;;;;;;5055049;28;19916;-59
2021/08/15 14:52:32;;;;;;;;;;;;;;;;;;5060533;28;19971;-59
2021/08/15 14:54:58;;;;;;;;;;;;;;;;;;5060497;28;20373;-59
2021/08/15 14:57:25;;;;;;;;;;;;;;;;;;5048808;28;19998;-59
2021/08/15 14:59:51;;;;;;;;;;;;;;;;;;5052931;28;20391;-59
2021/08/15 15:02:17;;;;;;;;;;;;;;;;;;5047222;28;19956;-58
2021/08/15 15:04:45;;;;;;;;;;;;;;;;;;5056104;28;19920;-61
2021/08/15 15:07:11;;;;;;;;;;;;;;;;;;5056181;28;19919;-60
2021/08/15 15:09:37;;;;;;;;;;;;;;;;;;5054546;28;20015;-60
2021/08/15 15:12:03;;;;;;;;;;;;;;;;;;5061503;28;19912;-60
2021/08/15 15:14:28;;;;;;;;;;;;;;;;;;5050881;28;20414;-60
2021/08/15 15:16:54;;;;;;;;;;;;;;;;;;5053600;28;20015;-59
2021/08/15 15:19:21;;;;;;;;;;;;;;;;;;5053582;28;19916;-60
2021/08/15 15:21:48;;;;;;;;;;;;;;;;;;5052104;28;19916;-59
2021/08/15 15:24:15;;;;;;;;;;;;;;;;;;5056024;28;19982;-59
2021/08/15 15:26:41;;;;;;;;;;;;;;;;;;5055377;28;20002;-58
2021/08/15 15:29:08;;;;;;;;;;;;;;;;;;5060251;28;19942;-59
2021/08/15 15:31:35;;;;;;;;;;;;;;;;;;5061612;28;19968;-59
2021/08/15 15:34:01;;;;;;;;;;;;;;;;;;5059073;28;20290;-58
2021/08/15 15:36:27;;;;;;;;;;;;;;;;;;5056792;28;20306;-60
2021/08/15 15:38:52;;;;;;;;;;;;;;;;;;5062586;28;20371;-58
2021/08/15 15:41:18;;;;;;;;;;;;;;;;;;5057964;28;20064;-58
2021/08/15 15:43:45;;;;;;;;;;;;;;;;;;5055689;28;20413;-59
2021/08/15 15:46:13;;;;;;;;;;;;;;;;;;5054133;28;20026;-59
2021/08/15 15:48:39;;;;;;;;;;;;;;;;;;5056929;28;19909;-59
2021/08/15 15:51:05;;;;;;;;;;;;;;;;;;5046109;28;19912;-59
2021/08/15 15:53:31;;;;;;;;;;;;;;;;;;5048776;28;19916;-59
2021/08/15 15:55:57;;;;;;;;;;;;;;;;;;5061969;28;20303;-58
2021/08/15 15:58:23;;;;;;;;;;;;;;;;;;5050350;28;19913;-59
2021/08/15 16:00:50;;;;;;;;;;;;;;;;;;5057418;28;19927;-59
2021/08/15 16:03:16;;;;;;;;;;;;;;;;;;5048761;28;19917;-59
2021/08/15 16:05:42;;;;;;;;;;;;;;;;;;5047848;28;19923;-58
2021/08/15 16:08:08;;;;;;;;;;;;;;;;;;5051095;28;20358;-59
2021/08/15 16:10:35;;;;;;;;;;;;;;;;;;5065547;28;19962;-59
2021/08/15 16:13:00;;;;;;;;;;;;;;;;;;5059395;28;19963;-58
2021/08/15 16:15:26;;;;;;;;;;;;;;;;;;5052873;28;19920;-58
2021/08/15 16:17:53;;;;;;;;;;;;;;;;;;5051870;28;19920;-58
2021/08/15 16:20:20;;;;;;;;;;;;;;;;;;5052692;28;19913;-59
2021/08/15 16:22:47;;;;;;;;;;;;;;;;;;5047510;28;19924;-59
2021/08/15 16:25:13;;;;;;;;;;;;;;;;;;5049621;28;19924;-59
2021/08/15 16:27:39;;;;;;;;;;;;;;;;;;5048235;28;19916;-58
2021/08/15 16:30:05;;;;;;;;;;;;;;;;;;5044001;28;20009;-59
2021/08/15 16:32:31;;;;;;;;;;;;;;;;;;5055045;28;19913;-59
2021/08/15 16:34:57;;;;;;;;;;;;;;;;;;5060961;28;19970;-59
2021/08/15 16:37:23;;;;;;;;;;;;;;;;;;5052493;28;19913;-58